sensor_id;sensor_type;location;lat;lon;timestamp;temperature;humidity
15922;DHT22;8060;50.948;3.146;2023-08-07T04:41:44;13.00;99.90
15922;DHT22;8060;50.948;3.146;2023-08-07T04:44:12;13.00;99.90
15922;DHT22;8060;50.948;3.146;2023-08-07T04:46:40;13.00;99.90
15922;DHT22;8060;50.948;3.146;2023-08-07T04:49:09;13.10;99.90
15922;DHT22;8060;50.948;3.146;2023-08-07T04:51:37;13.20;99.90
15922;DHT22;8060;50.948;3.146;2023-08-07T04:54:05;13.30;99.90
15922;DHT22;8060;50.948;3.146;2023-08-07T04:56:33;13.40;99.90
15922;DHT22;8060;50.948;3.146;2023-08-07T04:59:02;13.50;99.90
15922;DHT22;8060;50.948;3.146;2023-08-07T05:01:30;13.60;99.90
15922;DHT22;8060;50.948;3.146;2023-08-07T05:03:59;13.70;99.90
15922;DHT22;8060;50.948;3.146;2023-08-07T05:06:27;13.80;99.90
15922;DHT22;8060;50.948;3.146;2023-08-07T05:08:55;13.90;99.90
15922;DHT22;8060;50.948;3.146;2023-08-07T05:11:23;14.00;99.90
15922;DHT22;8060;50.948;3.146;2023-08-07T05:13:51;14.10;99.90
15922;DHT22;8060;50.948;3.146;2023-08-07T05:16:20;14.10;99.90
15922;DHT22;8060;50.948;3.146;2023-08-07T05:18:50;14.30;99.90
15922;DHT22;8060;50.948;3.146;2023-08-07T05:21:18;14.30;99.90
15922;DHT22;8060;50.948;3.146;2023-08-07T05:23:46;14.30;99.90
15922;DHT22;8060;50.948;3.146;2023-08-07T05:26:19;14.40;99.90
15922;DHT22;8060;50.948;3.146;2023-08-07T05:28:47;14.40;99.90
15922;DHT22;8060;50.948;3.146;2023-08-07T05:31:15;14.40;99.90
15922;DHT22;8060;50.948;3.146;2023-08-07T05:33:45;14.40;99.90
15922;DHT22;8060;50.948;3.146;2023-08-07T05:36:13;14.40;99.90
15922;DHT22;8060;50.948;3.146;2023-08-07T05:38:41;14.40;99.90
15922;DHT22;8060;50.948;3.146;2023-08-07T05:41:09;14.30;99.90
15922;DHT22;8060;50.948;3.146;2023-08-07T05:43:37;14.30;99.90
15922;DHT22;8060;50.948;3.146;2023-08-07T05:46:05;14.40;99.90
15922;DHT22;8060;50.948;3.146;2023-08-07T05:48:34;14.40;99.90
15922;DHT22;8060;50.948;3.146;2023-08-07T05:51:03;14.40;99.90
15922;DHT22;8060;50.948;3.146;2023-08-07T05:53:35;14.40;99.90
15922;DHT22;8060;50.948;3.146;2023-08-07T05:56:03;14.50;99.90
15922;DHT22;8060;50.948;3.146;2023-08-07T05:58:31;14.50;99.90
15922;DHT22;8060;50.948;3.146;2023-08-07T06:00:59;14.60;99.90
15922;DHT22;8060;50.948;3.146;2023-08-07T06:03:27;14.60;99.90
15922;DHT22;8060;50.948;3.146;2023-08-07T06:05:58;14.60;99.90
15922;DHT22;8060;50.948;3.146;2023-08-07T06:08:28;14.70;99.90
15922;DHT22;8060;50.948;3.146;2023-08-07T06:10:56;14.80;99.90
15922;DHT22;8060;50.948;3.146;2023-08-07T06:13:24;14.80;99.90
15922;DHT22;8060;50.948;3.146;2023-08-07T06:16:02;15.00;99.90
15922;DHT22;8060;50.948;3.146;2023-08-07T06:18:30;15.00;99.90
15922;DHT22;8060;50.948;3.146;2023-08-07T06:20:58;15.10;99.90
15922;DHT22;8060;50.948;3.146;2023-08-07T06:23:28;15.10;99.90
15922;DHT22;8060;50.948;3.146;2023-08-07T06:25:56;15.20;99.90
15922;DHT22;8060;50.948;3.146;2023-08-07T06:28:25;15.30;99.90
15922;DHT22;8060;50.948;3.146;2023-08-07T06:30:59;15.40;99.90
15922;DHT22;8060;50.948;3.146;2023-08-07T06:33:27;15.50;99.90
15922;DHT22;8060;50.948;3.146;2023-08-07T06:35:56;15.60;99.90
15922;DHT22;8060;50.948;3.146;2023-08-07T06:38:24;15.60;99.90
15922;DHT22;8060;50.948;3.146;2023-08-07T06:40:54;15.60;99.90
15922;DHT22;8060;50.948;3.146;2023-08-07T06:43:22;15.70;99.90
15922;DHT22;8060;50.948;3.146;2023-08-07T06:45:50;15.80;99.90
15922;DHT22;8060;50.948;3.146;2023-08-07T06:48:19;16.00;99.90
15922;DHT22;8060;50.948;3.146;2023-08-07T06:50:47;16.10;99.90
15922;DHT22;8060;50.948;3.146;2023-08-07T06:53:15;16.20;99.90
15922;DHT22;8060;50.948;3.146;2023-08-07T06:55:44;16.30;99.90
15922;DHT22;8060;50.948;3.146;2023-08-07T06:58:14;16.30;99.90
15922;DHT22;8060;50.948;3.146;2023-08-07T07:00:42;16.40;99.90
15922;DHT22;8060;50.948;3.146;2023-08-07T07:03:10;16.50;99.90
15922;DHT22;8060;50.948;3.146;2023-08-07T07:05:38;16.50;99.90
15922;DHT22;8060;50.948;3.146;2023-08-07T07:08:09;16.60;99.90
15922;DHT22;8060;50.948;3.146;2023-08-07T07:10:37;16.80;99.90
15922;DHT22;8060;50.948;3.146;2023-08-07T07:13:06;16.80;99.90
15922;DHT22;8060;50.948;3.146;2023-08-07T07:15:36;16.90;99.90
15922;DHT22;8060;50.948;3.146;2023-08-07T07:18:04;16.90;99.90
15922;DHT22;8060;50.948;3.146;2023-08-07T07:20:33;17.00;99.90
15922;DHT22;8060;50.948;3.146;2023-08-07T07:23:01;17.00;99.90
15922;DHT22;8060;50.948;3.146;2023-08-07T07:25:29;17.20;99.90
15922;DHT22;8060;50.948;3.146;2023-08-07T07:27:57;17.30;99.90
15922;DHT22;8060;50.948;3.146;2023-08-07T07:30:25;17.40;99.90
15922;DHT22;8060;50.948;3.146;2023-08-07T07:32:55;17.40;99.90
15922;DHT22;8060;50.948;3.146;2023-08-07T07:35:23;17.50;99.90
15922;DHT22;8060;50.948;3.146;2023-08-07T07:37:51;17.60;99.90
15922;DHT22;8060;50.948;3.146;2023-08-07T07:40:21;17.60;99.90
15922;DHT22;8060;50.948;3.146;2023-08-07T07:42:50;17.80;99.90
15922;DHT22;8060;50.948;3.146;2023-08-07T07:45:18;18.00;99.90
15922;DHT22;8060;50.948;3.146;2023-08-07T07:47:46;18.00;99.90
15922;DHT22;8060;50.948;3.146;2023-08-07T07:50:15;18.00;99.90
15922;DHT22;8060;50.948;3.146;2023-08-07T07:52:43;18.00;99.90
15922;DHT22;8060;50.948;3.146;2023-08-07T07:55:11;18.10;99.90
15922;DHT22;8060;50.948;3.146;2023-08-07T07:57:40;18.20;99.90
15922;DHT22;8060;50.948;3.146;2023-08-07T08:00:10;18.20;99.90
15922;DHT22;8060;50.948;3.146;2023-08-07T08:02:39;18.30;99.90
15922;DHT22;8060;50.948;3.146;2023-08-07T08:05:09;18.20;99.90
15922;DHT22;8060;50.948;3.146;2023-08-07T08:07:40;18.20;99.90
15922;DHT22;8060;50.948;3.146;2023-08-07T08:10:09;18.20;99.90
15922;DHT22;8060;50.948;3.146;2023-08-07T08:12:37;18.30;99.90
15922;DHT22;8060;50.948;3.146;2023-08-07T08:15:06;18.50;99.90
15922;DHT22;8060;50.948;3.146;2023-08-07T08:17:35;18.70;99.90
15922;DHT22;8060;50.948;3.146;2023-08-07T08:20:04;19.00;99.90
15922;DHT22;8060;50.948;3.146;2023-08-07T08:22:32;19.20;99.90
15922;DHT22;8060;50.948;3.146;2023-08-07T08:25:02;19.40;99.90
15922;DHT22;8060;50.948;3.146;2023-08-07T08:27:31;19.60;99.90
15922;DHT22;8060;50.948;3.146;2023-08-07T08:29:59;19.60;99.90
15922;DHT22;8060;50.948;3.146;2023-08-07T08:32:27;19.50;99.90
15922;DHT22;8060;50.948;3.146;2023-08-07T08:34:56;19.40;99.90
15922;DHT22;8060;50.948;3.146;2023-08-07T08:37:24;19.60;99.90
15922;DHT22;8060;50.948;3.146;2023-08-07T08:39:52;19.70;99.90
15922;DHT22;8060;50.948;3.146;2023-08-07T08:42:22;19.90;99.90
15922;DHT22;8060;50.948;3.146;2023-08-07T08:44:52;20.10;99.90
15922;DHT22;8060;50.948;3.146;2023-08-07T08:47:21;20.20;99.90
15922;DHT22;8060;50.948;3.146;2023-08-07T08:49:53;20.30;99.90
15922;DHT22;8060;50.948;3.146;2023-08-07T08:52:23;20.20;99.90
15922;DHT22;8060;50.948;3.146;2023-08-07T08:54:51;20.00;99.90
15922;DHT22;8060;50.948;3.146;2023-08-07T08:57:20;19.90;99.90
15922;DHT22;8060;50.948;3.146;2023-08-07T08:59:50;20.00;99.90
15922;DHT22;8060;50.948;3.146;2023-08-07T09:02:18;20.30;99.90
15922;DHT22;8060;50.948;3.146;2023-08-07T09:04:46;20.50;99.90
15922;DHT22;8060;50.948;3.146;2023-08-07T09:08:53;20.70;99.90
15922;DHT22;8060;50.948;3.146;2023-08-07T09:16:11;20.20;99.90
15922;DHT22;8060;50.948;3.146;2023-08-07T09:18:40;20.10;99.90
15922;DHT22;8060;50.948;3.146;2023-08-07T09:26:07;20.00;99.90
15922;DHT22;8060;50.948;3.146;2023-08-07T09:28:36;19.90;99.90
15922;DHT22;8060;50.948;3.146;2023-08-07T09:31:06;20.00;99.90
15922;DHT22;8060;50.948;3.146;2023-08-07T09:33:35;20.10;99.90
15922;DHT22;8060;50.948;3.146;2023-08-07T09:36:04;20.00;99.90
15922;DHT22;8060;50.948;3.146;2023-08-07T09:38:32;20.00;99.90
15922;DHT22;8060;50.948;3.146;2023-08-07T09:41:01;20.20;99.90
15922;DHT22;8060;50.948;3.146;2023-08-07T09:43:33;20.60;99.90
15922;DHT22;8060;50.948;3.146;2023-08-07T09:46:03;21.10;99.90
15922;DHT22;8060;50.948;3.146;2023-08-07T09:48:31;21.30;99.90
15922;DHT22;8060;50.948;3.146;2023-08-07T09:51:01;21.10;99.90
15922;DHT22;8060;50.948;3.146;2023-08-07T09:53:30;21.10;99.90
15922;DHT22;8060;50.948;3.146;2023-08-07T09:55:58;21.20;99.90
15922;DHT22;8060;50.948;3.146;2023-08-07T09:58:26;21.20;99.90
15922;DHT22;8060;50.948;3.146;2023-08-07T10:00:58;21.10;99.90
15922;DHT22;8060;50.948;3.146;2023-08-07T10:03:27;20.90;99.90
15922;DHT22;8060;50.948;3.146;2023-08-07T10:05:58;20.80;99.90
15922;DHT22;8060;50.948;3.146;2023-08-07T10:08:26;21.00;99.90
15922;DHT22;8060;50.948;3.146;2023-08-07T10:10:56;21.20;99.90
15922;DHT22;8060;50.948;3.146;2023-08-07T10:13:25;21.60;99.90
15922;DHT22;8060;50.948;3.146;2023-08-07T10:16:06;21.60;99.90
15922;DHT22;8060;50.948;3.146;2023-08-07T10:18:35;21.50;99.90
15922;DHT22;8060;50.948;3.146;2023-08-07T10:21:05;21.70;99.90
15922;DHT22;8060;50.948;3.146;2023-08-07T10:23:35;21.80;99.90
15922;DHT22;8060;50.948;3.146;2023-08-07T10:26:04;21.90;99.90
15922;DHT22;8060;50.948;3.146;2023-08-07T10:28:35;21.90;99.90
15922;DHT22;8060;50.948;3.146;2023-08-07T10:31:07;21.80;99.90
15922;DHT22;8060;50.948;3.146;2023-08-07T10:33:36;21.90;99.90
15922;DHT22;8060;50.948;3.146;2023-08-07T10:36:08;22.10;99.90
15922;DHT22;8060;50.948;3.146;2023-08-07T10:38:37;22.30;99.90
15922;DHT22;8060;50.948;3.146;2023-08-07T10:41:07;22.20;99.90
15922;DHT22;8060;50.948;3.146;2023-08-07T10:43:38;22.10;99.90
15922;DHT22;8060;50.948;3.146;2023-08-07T10:46:10;22.20;99.90
15922;DHT22;8060;50.948;3.146;2023-08-07T10:48:40;22.20;99.90
15922;DHT22;8060;50.948;3.146;2023-08-07T10:51:08;22.40;99.90
15922;DHT22;8060;50.948;3.146;2023-08-07T10:53:41;22.80;99.90
15922;DHT22;8060;50.948;3.146;2023-08-07T10:56:11;23.10;99.90
15922;DHT22;8060;50.948;3.146;2023-08-07T10:58:49;22.90;99.90
15922;DHT22;8060;50.948;3.146;2023-08-07T11:01:39;22.80;99.90
15922;DHT22;8060;50.948;3.146;2023-08-07T11:04:09;22.80;99.90
15922;DHT22;8060;50.948;3.146;2023-08-07T11:06:40;22.80;99.90
15922;DHT22;8060;50.948;3.146;2023-08-07T11:09:09;22.60;99.90
15922;DHT22;8060;50.948;3.146;2023-08-07T11:11:38;22.40;99.90
15922;DHT22;8060;50.948;3.146;2023-08-07T11:14:08;22.30;99.90
15922;DHT22;8060;50.948;3.146;2023-08-07T11:16:38;22.00;99.90
15922;DHT22;8060;50.948;3.146;2023-08-07T11:19:06;22.00;99.90
15922;DHT22;8060;50.948;3.146;2023-08-07T11:21:36;22.30;99.90
15922;DHT22;8060;50.948;3.146;2023-08-07T11:24:05;22.70;99.90
15922;DHT22;8060;50.948;3.146;2023-08-07T11:26:33;22.50;99.90
15922;DHT22;8060;50.948;3.146;2023-08-07T11:29:01;22.60;99.90
15922;DHT22;8060;50.948;3.146;2023-08-07T11:31:29;22.40;99.90
15922;DHT22;8060;50.948;3.146;2023-08-07T11:34:00;22.40;99.90
15922;DHT22;8060;50.948;3.146;2023-08-07T11:36:30;22.50;99.90
15922;DHT22;8060;50.948;3.146;2023-08-07T11:38:58;22.80;99.90
15922;DHT22;8060;50.948;3.146;2023-08-07T11:41:26;23.20;99.90
15922;DHT22;8060;50.948;3.146;2023-08-07T11:43:55;23.60;99.90
15922;DHT22;8060;50.948;3.146;2023-08-07T11:46:24;23.80;99.90
15922;DHT22;8060;50.948;3.146;2023-08-07T11:48:52;23.50;99.90
15922;DHT22;8060;50.948;3.146;2023-08-07T11:51:23;23.30;99.90
15922;DHT22;8060;50.948;3.146;2023-08-07T11:53:52;23.10;99.90
15922;DHT22;8060;50.948;3.146;2023-08-07T11:56:23;23.40;99.90
15922;DHT22;8060;50.948;3.146;2023-08-07T11:58:52;23.80;99.90
15922;DHT22;8060;50.948;3.146;2023-08-07T12:01:21;24.10;99.90
15922;DHT22;8060;50.948;3.146;2023-08-07T12:03:52;24.20;99.90
15922;DHT22;8060;50.948;3.146;2023-08-07T12:06:23;24.50;99.90
15922;DHT22;8060;50.948;3.146;2023-08-07T12:08:54;24.70;99.90
15922;DHT22;8060;50.948;3.146;2023-08-07T12:11:23;25.00;99.90
15922;DHT22;8060;50.948;3.146;2023-08-07T12:13:52;25.10;99.90
15922;DHT22;8060;50.948;3.146;2023-08-07T12:16:20;24.70;99.90
15922;DHT22;8060;50.948;3.146;2023-08-07T12:18:49;24.50;99.90
15922;DHT22;8060;50.948;3.146;2023-08-07T12:21:18;24.60;99.90
15922;DHT22;8060;50.948;3.146;2023-08-07T12:23:48;24.50;99.90
15922;DHT22;8060;50.948;3.146;2023-08-07T12:26:17;24.50;99.90
15922;DHT22;8060;50.948;3.146;2023-08-07T12:28:45;24.50;99.90
15922;DHT22;8060;50.948;3.146;2023-08-07T12:31:13;24.30;99.90
15922;DHT22;8060;50.948;3.146;2023-08-07T12:33:41;23.80;99.90
15922;DHT22;8060;50.948;3.146;2023-08-07T12:36:10;23.50;99.90
15922;DHT22;8060;50.948;3.146;2023-08-07T12:38:43;23.30;99.90
15922;DHT22;8060;50.948;3.146;2023-08-07T12:41:15;23.50;99.90
15922;DHT22;8060;50.948;3.146;2023-08-07T12:43:46;24.00;99.90
15922;DHT22;8060;50.948;3.146;2023-08-07T12:46:14;24.40;99.90
15922;DHT22;8060;50.948;3.146;2023-08-07T12:48:45;24.80;99.90
15922;DHT22;8060;50.948;3.146;2023-08-07T12:51:13;25.10;99.90
15922;DHT22;8060;50.948;3.146;2023-08-07T12:53:41;25.20;99.90
15922;DHT22;8060;50.948;3.146;2023-08-07T12:56:11;25.60;99.90
15922;DHT22;8060;50.948;3.146;2023-08-07T12:58:40;25.80;99.90
15922;DHT22;8060;50.948;3.146;2023-08-07T13:01:09;25.70;99.90
15922;DHT22;8060;50.948;3.146;2023-08-07T13:03:38;25.80;99.90
15922;DHT22;8060;50.948;3.146;2023-08-07T13:06:06;25.60;99.90
15922;DHT22;8060;50.948;3.146;2023-08-07T13:08:35;25.50;99.90
15922;DHT22;8060;50.948;3.146;2023-08-07T13:11:04;25.40;99.90
15922;DHT22;8060;50.948;3.146;2023-08-07T13:13:32;25.40;99.90
15922;DHT22;8060;50.948;3.146;2023-08-07T13:16:01;25.50;99.90
15922;DHT22;8060;50.948;3.146;2023-08-07T13:18:29;25.40;99.90
15922;DHT22;8060;50.948;3.146;2023-08-07T13:20:58;25.10;99.90
15922;DHT22;8060;50.948;3.146;2023-08-07T13:23:26;24.90;99.90
15922;DHT22;8060;50.948;3.146;2023-08-07T13:25:57;24.60;99.90
15922;DHT22;8060;50.948;3.146;2023-08-07T13:28:25;24.20;99.90
15922;DHT22;8060;50.948;3.146;2023-08-07T13:30:53;24.00;99.90
15922;DHT22;8060;50.948;3.146;2023-08-07T13:33:24;23.70;99.90
15922;DHT22;8060;50.948;3.146;2023-08-07T13:35:52;23.30;99.90
15922;DHT22;8060;50.948;3.146;2023-08-07T13:38:20;23.10;99.90
15922;DHT22;8060;50.948;3.146;2023-08-07T13:40:49;22.80;99.90
15922;DHT22;8060;50.948;3.146;2023-08-07T13:43:17;22.80;99.90
15922;DHT22;8060;50.948;3.146;2023-08-07T13:45:46;22.70;99.90
15922;DHT22;8060;50.948;3.146;2023-08-07T13:48:14;22.70;99.90
15922;DHT22;8060;50.948;3.146;2023-08-07T13:50:44;22.90;99.90
15922;DHT22;8060;50.948;3.146;2023-08-07T13:53:12;22.90;99.90
15922;DHT22;8060;50.948;3.146;2023-08-07T13:55:43;22.70;99.90
15922;DHT22;8060;50.948;3.146;2023-08-07T13:58:11;22.90;99.90
15922;DHT22;8060;50.948;3.146;2023-08-07T14:00:42;23.10;99.90
15922;DHT22;8060;50.948;3.146;2023-08-07T14:03:10;23.20;99.90
15922;DHT22;8060;50.948;3.146;2023-08-07T14:05:40;23.00;99.90
15922;DHT22;8060;50.948;3.146;2023-08-07T14:08:10;22.90;99.90
15922;DHT22;8060;50.948;3.146;2023-08-07T14:10:38;22.80;99.90
15922;DHT22;8060;50.948;3.146;2023-08-07T14:13:09;22.60;99.90
15922;DHT22;8060;50.948;3.146;2023-08-07T14:15:38;22.60;99.90
15922;DHT22;8060;50.948;3.146;2023-08-07T14:18:07;22.60;99.90
15922;DHT22;8060;50.948;3.146;2023-08-07T14:20:35;22.50;99.90
15922;DHT22;8060;50.948;3.146;2023-08-07T14:23:24;22.70;99.90
15922;DHT22;8060;50.948;3.146;2023-08-07T14:25:53;23.00;99.90
15922;DHT22;8060;50.948;3.146;2023-08-07T14:28:21;23.20;99.90
15922;DHT22;8060;50.948;3.146;2023-08-07T14:30:49;23.20;99.90
15922;DHT22;8060;50.948;3.146;2023-08-07T14:33:18;23.10;99.90
15922;DHT22;8060;50.948;3.146;2023-08-07T14:35:46;22.90;99.90
15922;DHT22;8060;50.948;3.146;2023-08-07T14:38:14;22.70;99.90
15922;DHT22;8060;50.948;3.146;2023-08-07T14:40:43;22.70;99.90
15922;DHT22;8060;50.948;3.146;2023-08-07T14:43:12;22.60;99.90
15922;DHT22;8060;50.948;3.146;2023-08-07T14:45:40;22.50;99.90
15922;DHT22;8060;50.948;3.146;2023-08-07T14:48:08;22.50;99.90
15922;DHT22;8060;50.948;3.146;2023-08-07T14:50:37;22.40;99.90
15922;DHT22;8060;50.948;3.146;2023-08-07T14:53:05;22.40;99.90
15922;DHT22;8060;50.948;3.146;2023-08-07T14:55:33;22.30;99.90
15922;DHT22;8060;50.948;3.146;2023-08-07T14:58:03;22.30;99.90
15922;DHT22;8060;50.948;3.146;2023-08-07T15:00:31;22.60;99.90
15922;DHT22;8060;50.948;3.146;2023-08-07T15:02:59;22.80;99.90
15922;DHT22;8060;50.948;3.146;2023-08-07T15:05:28;23.00;99.90
15922;DHT22;8060;50.948;3.146;2023-08-07T15:07:56;23.20;99.90
15922;DHT22;8060;50.948;3.146;2023-08-07T15:10:25;23.20;99.90
15922;DHT22;8060;50.948;3.146;2023-08-07T15:12:53;23.20;99.90
15922;DHT22;8060;50.948;3.146;2023-08-07T15:15:23;23.30;99.90
15922;DHT22;8060;50.948;3.146;2023-08-07T15:17:52;23.40;99.90
15922;DHT22;8060;50.948;3.146;2023-08-07T15:20:20;23.30;99.90
15922;DHT22;8060;50.948;3.146;2023-08-07T15:22:48;23.20;99.90
15922;DHT22;8060;50.948;3.146;2023-08-07T15:25:17;23.00;99.90
15922;DHT22;8060;50.948;3.146;2023-08-07T15:27:45;22.90;99.90
15922;DHT22;8060;50.948;3.146;2023-08-07T15:30:13;22.80;99.90
15922;DHT22;8060;50.948;3.146;2023-08-07T15:32:42;22.80;99.90
15922;DHT22;8060;50.948;3.146;2023-08-07T15:35:11;22.70;99.90
15922;DHT22;8060;50.948;3.146;2023-08-07T15:37:39;22.60;99.90
15922;DHT22;8060;50.948;3.146;2023-08-07T15:40:08;22.80;99.90
15922;DHT22;8060;50.948;3.146;2023-08-07T15:42:37;22.70;99.90
15922;DHT22;8060;50.948;3.146;2023-08-07T15:45:06;22.60;99.90
15922;DHT22;8060;50.948;3.146;2023-08-07T15:47:34;22.60;99.90
15922;DHT22;8060;50.948;3.146;2023-08-07T15:50:05;22.60;99.90
15922;DHT22;8060;50.948;3.146;2023-08-07T15:52:33;22.70;99.90
15922;DHT22;8060;50.948;3.146;2023-08-07T15:55:01;22.60;99.90
15922;DHT22;8060;50.948;3.146;2023-08-07T15:57:29;22.60;99.90
15922;DHT22;8060;50.948;3.146;2023-08-07T15:59:57;22.50;99.90
15922;DHT22;8060;50.948;3.146;2023-08-07T16:02:25;22.50;99.90
15922;DHT22;8060;50.948;3.146;2023-08-07T16:04:54;22.50;99.90
15922;DHT22;8060;50.948;3.146;2023-08-07T16:07:23;22.60;99.90
15922;DHT22;8060;50.948;3.146;2023-08-07T16:09:51;22.90;99.90
15922;DHT22;8060;50.948;3.146;2023-08-07T16:12:19;23.10;99.90
15922;DHT22;8060;50.948;3.146;2023-08-07T16:14:47;23.20;99.90
15922;DHT22;8060;50.948;3.146;2023-08-07T16:17:15;23.10;99.90
15922;DHT22;8060;50.948;3.146;2023-08-07T16:19:44;23.00;99.90
15922;DHT22;8060;50.948;3.146;2023-08-07T16:22:12;23.00;99.90
15922;DHT22;8060;50.948;3.146;2023-08-07T16:24:41;22.80;99.90
15922;DHT22;8060;50.948;3.146;2023-08-07T16:27:10;22.90;99.90
15922;DHT22;8060;50.948;3.146;2023-08-07T16:29:38;22.80;99.90
